Time;durP1;ratioP1;P1;durP2;ratioP2;P2;SDS_P1;SDS_P2;PMS_P1;PMS_P2;Temp;Humidity;BMP_temperature;BMP_pressure;BME280_temperature;BME280_humidity;BME280_pressure;Samples;Min_cycle;Max_cycle;Signal;HPM_P1;HPM_P2
2022/12/23 00:00:15;;;;;;;;;;;;;;;15.86;49.06;100765.38;5095417;28;1022;-43
2022/12/23 00:02:41;;;;;;;;;;;;;;;17.38;45.46;100777.84;5096057;28;1910;-43
2022/12/23 00:05:06;;;;;;;;;;;;;;;16.72;46.90;100768.56;5095869;28;1158;-44
2022/12/23 00:07:32;;;;;;;;;;;;;;;16.11;48.28;100768.50;5096049;28;1053;-40
2022/12/23 00:09:57;;;;;;;;;;;;;;;16.02;48.55;100777.25;5095602;28;1042;-39
2022/12/23 00:15:07;;;;;;;;;;;;;;;16.24;47.89;100773.44;5094136;28;2580;-40
2022/12/23 00:17:33;;;;;;;;;;;;;;;15.88;49.00;100776.09;5095843;28;1070;-43
2022/12/23 00:19:58;;;;;;;;;;;;;;;16.47;47.76;100772.13;5095642;28;1018;-44
2022/12/23 00:23:03;;;;;;;;;;;;;;;17.07;46.05;100775.16;5095309;28;1909;-39
2022/12/23 00:25:10;;;;;;;;;;;;;;;16.13;48.17;100775.38;5095203;28;1290;-44
2022/12/23 00:27:35;;;;;;;;;;;;;;;17.13;46.22;100766.91;5095639;28;1143;-41
2022/12/23 00:30:01;;;;;;;;;;;;;;;16.74;46.59;100766.34;5095835;28;1233;-43
2022/12/23 00:32:26;;;;;;;;;;;;;;;16.11;48.23;100757.53;5097492;28;994;-40
2022/12/23 00:34:52;;;;;;;;;;;;;;;15.86;49.02;100761.81;5099303;28;1007;-39
2022/12/23 00:37:17;;;;;;;;;;;;;;;16.60;47.29;100755.09;5099122;28;1023;-38
2022/12/23 00:45:16;;;;;;;;;;;;;;;16.03;48.82;100751.47;5091224;28;2697;-39
2022/12/23 00:50:28;;;;;;;;;;;;;;;16.41;47.53;100740.25;5099238;28;1054;-44
2022/12/23 00:52:53;;;;;;;;;;;;;;;15.95;48.63;100743.78;5098864;28;1039;-41
2022/12/23 00:55:19;;;;;;;;;;;;;;;15.73;49.24;100736.53;5099339;28;1174;-40
2022/12/23 00:57:44;;;;;;;;;;;;;;;17.18;45.79;100742.16;5099056;28;1066;-42
2022/12/23 01:00:10;;;;;;;;;;;;;;;16.65;46.72;100740.56;5095071;28;899;-41
2022/12/23 01:05:37;;;;;;;;;;;;;;;16.37;47.90;100726.28;5098948;28;1070;-44
2022/12/23 01:08:04;;;;;;;;;;;;;;;17.22;45.40;100721.28;5098922;28;979;-38
2022/12/23 01:10:29;;;;;;;;;;;;;;;16.27;47.91;100718.06;5098045;28;1182;-42
2022/12/23 01:12:55;;;;;;;;;;;;;;;15.94;48.79;100724.84;5098931;28;1030;-46
2022/12/23 01:15:20;;;;;;;;;;;;;;;15.96;48.95;100728.94;5098046;28;2583;-42
2022/12/23 01:17:45;;;;;;;;;;;;;;;17.45;45.21;100715.16;5099049;28;1065;-44
2022/12/23 01:20:11;;;;;;;;;;;;;;;16.37;47.61;100709.00;5098748;28;1094;-42
2022/12/23 01:22:36;;;;;;;;;;;;;;;15.89;48.70;100714.66;5098342;28;1901;-42
2022/12/23 01:25:02;;;;;;;;;;;;;;;17.20;45.65;100699.56;5098398;28;1462;-42
2022/12/23 01:27:27;;;;;;;;;;;;;;;16.89;46.11;100704.31;5098568;28;1015;-41
2022/12/23 01:29:53;;;;;;;;;;;;;;;16.17;47.88;100696.06;5098260;28;1102;-41
2022/12/23 01:32:18;;;;;;;;;;;;;;;17.35;45.43;100682.22;5098848;28;1061;-42
2022/12/23 01:34:44;;;;;;;;;;;;;;;16.62;47.11;100688.97;5094624;28;1003;-43
2022/12/23 01:37:09;;;;;;;;;;;;;;;16.06;48.26;100684.25;5089212;28;1018;-42
2022/12/23 01:39:35;;;;;;;;;;;;;;;15.80;49.14;100691.63;5097912;28;1006;-39
2022/12/23 01:44:58;;;;;;;;;;;;;;;16.57;47.08;100688.94;5090514;28;2398;-42
2022/12/23 01:47:23;;;;;;;;;;;;;;;16.07;48.22;100684.00;5097941;28;1154;-41
2022/12/23 01:49:49;;;;;;;;;;;;;;;17.54;44.88;100673.31;5097949;28;1115;-41
2022/12/23 01:52:14;;;;;;;;;;;;;;;16.54;47.08;100679.34;5097389;28;1097;-43
2022/12/23 01:54:39;;;;;;;;;;;;;;;16.07;48.35;100675.78;5096286;28;1067;-44
2022/12/23 01:57:05;;;;;;;;;;;;;;;15.80;49.04;100680.66;5097460;28;1117;-44
2022/12/23 02:04:58;;;;;;;;;;;;;;;15.97;48.60;100677.69;5097629;28;1149;-42
2022/12/23 02:10:07;;;;;;;;;;;;;;;17.37;45.31;100668.19;5097090;28;1209;-41
2022/12/23 02:12:48;;;;;;;;;;;;;;;16.65;46.95;100676.56;5096918;28;880;-43
2022/12/23 02:18:06;;;;;;;;;;;;;;;16.00;48.44;100669.72;5097979;28;1197;-38
2022/12/23 02:20:34;;;;;;;;;;;;;;;17.50;44.75;100664.00;5097320;28;1465;-41
2022/12/23 02:23:03;;;;;;;;;;;;;;;16.41;47.46;100664.25;5096364;28;1971;-40
2022/12/23 02:25:51;;;;;;;;;;;;;;;15.91;48.70;100672.16;5097284;28;1034;-40
2022/12/23 02:28:23;;;;;;;;;;;;;;;17.00;45.99;100662.00;5070450;28;1163;-40
2022/12/23 02:30:50;;;;;;;;;;;;;;;16.80;46.27;100665.56;5097441;28;1114;-43
2022/12/23 02:33:28;;;;;;;;;;;;;;;16.10;47.98;100668.91;5095913;28;1127;-39
2022/12/23 02:36:20;;;;;;;;;;;;;;;15.78;48.97;100667.19;5097026;28;1123;-43
2022/12/23 02:38:48;;;;;;;;;;;;;;;17.37;45.33;100652.50;5084927;28;1417;-43
2022/12/23 02:41:19;;;;;;;;;;;;;;;16.44;47.26;100662.88;5097087;28;1076;-41
2022/12/23 02:43:46;;;;;;;;;;;;;;;15.96;48.43;100662.31;5089722;28;2523;-41
2022/12/23 02:46:13;;;;;;;;;;;;;;;16.36;47.82;100667.00;5095341;28;1171;-39
2022/12/23 02:48:44;;;;;;;;;;;;;;;17.45;44.85;100660.16;5095689;28;1031;-42
2022/12/23 02:51:10;;;;;;;;;;;;;;;16.36;47.36;100663.44;5096635;28;1058;-41
2022/12/23 02:54:04;;;;;;;;;;;;;;;15.97;48.29;100662.03;5095560;28;1019;-45
2022/12/23 02:56:30;;;;;;;;;;;;;;;17.31;45.23;100661.06;5082483;28;1174;-41
2022/12/23 02:58:58;;;;;;;;;;;;;;;16.68;46.57;100659.56;5095657;28;1151;-40
2022/12/23 03:01:24;;;;;;;;;;;;;;;16.11;48.06;100659.59;5096811;28;955;-42
2022/12/23 03:03:50;;;;;;;;;;;;;;;16.43;47.35;100661.25;5095135;28;1905;-45
2022/12/23 03:06:17;;;;;;;;;;;;;;;17.16;45.48;100650.97;5095640;28;1151;-41
2022/12/23 03:08:42;;;;;;;;;;;;;;;16.25;47.56;100654.38;5094858;28;1039;-40
2022/12/23 03:11:09;;;;;;;;;;;;;;;15.90;48.50;100647.78;5095504;28;991;-42
2022/12/23 03:13:53;;;;;;;;;;;;;;;16.14;48.10;100655.47;5095077;28;1942;-38
2022/12/23 03:16:24;;;;;;;;;;;;;;;17.45;44.70;100649.16;5096687;28;1103;-39
2022/12/23 03:18:56;;;;;;;;;;;;;;;16.36;47.44;100650.53;5096105;28;1047;-39
2022/12/23 03:21:41;;;;;;;;;;;;;;;15.91;48.67;100654.91;5096378;28;1090;-41
2022/12/23 03:24:13;;;;;;;;;;;;;;;16.64;46.94;100656.53;5095025;28;1901;-39
2022/12/23 03:26:39;;;;;;;;;;;;;;;17.00;45.93;100636.44;5095706;28;1010;-41
2022/12/23 03:29:07;;;;;;;;;;;;;;;16.17;47.93;100650.28;5095095;28;1111;-42
2022/12/23 03:31:33;;;;;;;;;;;;;;;16.33;47.62;100633.81;5094691;28;1054;-40
2022/12/23 03:34:00;;;;;;;;;;;;;;;17.41;44.92;100641.78;5095164;28;976;-41
2022/12/23 03:36:27;;;;;;;;;;;;;;;16.35;47.53;100640.66;5094361;28;1019;-40
2022/12/23 03:38:53;;;;;;;;;;;;;;;15.95;48.59;100641.47;5094428;28;1088;-40
2022/12/23 03:41:20;;;;;;;;;;;;;;;16.27;47.69;100643.13;5094323;28;1079;-43
2022/12/23 03:43:53;;;;;;;;;;;;;;;17.38;44.75;100634.91;5088995;28;2357;-42
2022/12/23 03:46:20;;;;;;;;;;;;;;;16.32;47.56;100643.13;5093652;28;1124;-41
2022/12/23 03:48:47;;;;;;;;;;;;;;;15.90;48.32;100640.34;5094304;28;1126;-41
2022/12/23 03:51:13;;;;;;;;;;;;;;;16.96;46.03;100647.19;5096157;28;1014;-42
2022/12/23 03:53:53;;;;;;;;;;;;;;;16.95;45.82;100640.03;5095262;28;1050;-43
2022/12/23 03:56:20;;;;;;;;;;;;;;;16.10;48.08;100644.22;5095955;28;1356;-40
2022/12/23 03:58:56;;;;;;;;;;;;;;;15.95;48.44;100635.97;5094871;28;1107;-41
2022/12/23 04:01:25;;;;;;;;;;;;;;;17.54;44.73;100632.09;5094894;28;958;-42
2022/12/23 04:03:53;;;;;;;;;;;;;;;16.50;47.16;100639.00;5094831;28;1901;-41
2022/12/23 04:06:19;;;;;;;;;;;;;;;16.00;48.13;100636.00;5097927;28;1082;-44
2022/12/23 04:08:44;;;;;;;;;;;;;;;15.84;48.80;100633.22;5099708;28;1010;-41
2022/12/23 04:11:10;;;;;;;;;;;;;;;17.40;45.05;100627.22;5098460;28;944;-43
2022/12/23 04:13:35;;;;;;;;;;;;;;;16.54;46.77;100634.63;5097528;28;2538;-39
2022/12/23 04:16:01;;;;;;;;;;;;;;;16.04;47.99;100648.06;5100150;28;1115;-44
2022/12/23 04:18:26;;;;;;;;;;;;;;;17.34;44.94;100642.09;5098423;28;1063;-44
2022/12/23 04:20:52;;;;;;;;;;;;;;;16.81;46.20;100644.44;5100223;28;1073;-42
2022/12/23 04:23:17;;;;;;;;;;;;;;;16.17;47.82;100652.19;5099757;28;1906;-45
2022/12/23 04:25:42;;;;;;;;;;;;;;;15.86;48.37;100654.88;5099435;28;1086;-42
2022/12/23 04:28:08;;;;;;;;;;;;;;;16.79;46.48;100646.63;5099754;28;1022;-44
2022/12/23 04:30:33;;;;;;;;;;;;;;;17.03;45.76;100652.38;5099806;28;1165;-45
2022/12/23 04:32:59;;;;;;;;;;;;;;;16.15;47.87;100649.72;5099350;28;1087;-43
2022/12/23 04:35:24;;;;;;;;;;;;;;;15.87;48.54;100654.63;5100124;28;1103;-46
2022/12/23 04:37:49;;;;;;;;;;;;;;;17.19;45.48;100650.38;5099282;28;980;-44
2022/12/23 04:40:15;;;;;;;;;;;;;;;16.77;46.31;100656.00;5099103;28;1026;-42
2022/12/23 04:42:40;;;;;;;;;;;;;;;16.15;48.01;100659.88;5099206;28;1905;-42
2022/12/23 04:45:06;;;;;;;;;;;;;;;15.78;48.89;100658.97;5091933;28;2596;-39
2022/12/23 04:47:31;;;;;;;;;;;;;;;15.59;49.21;100657.81;5099235;28;1058;-44
2022/12/23 04:49:57;;;;;;;;;;;;;;;16.38;47.47;100662.06;5099024;28;1023;-44
2022/12/23 04:52:22;;;;;;;;;;;;;;;17.33;44.89;100662.41;5099533;28;1046;-40
2022/12/23 04:54:48;;;;;;;;;;;;;;;16.20;47.70;100663.44;5098755;28;1086;-42
2022/12/23 04:57:14;;;;;;;;;;;;;;;15.80;48.66;100654.06;5098913;28;1213;-47
2022/12/23 04:59:39;;;;;;;;;;;;;;;15.70;49.13;100665.78;5098918;28;1166;-42
2022/12/23 05:02:04;;;;;;;;;;;;;;;17.32;45.10;100666.28;5098337;28;836;-45
2022/12/23 05:04:30;;;;;;;;;;;;;;;16.48;46.90;100671.38;5098613;28;1993;-45
2022/12/23 05:06:55;;;;;;;;;;;;;;;15.88;48.34;100674.66;5098740;28;983;-44
2022/12/23 05:09:21;;;;;;;;;;;;;;;15.59;49.00;100668.78;5099216;28;1026;-44
2022/12/23 05:11:46;;;;;;;;;;;;;;;15.43;49.58;100670.63;5098885;28;1089;-44
2022/12/23 05:14:11;;;;;;;;;;;;;;;17.02;45.61;100673.50;5097974;28;2428;-46
2022/12/23 05:16:37;;;;;;;;;;;;;;;16.60;46.62;100674.66;5097535;28;1193;-47
2022/12/23 05:19:03;;;;;;;;;;;;;;;15.89;48.48;100673.53;5077846;28;1046;-47
2022/12/23 05:21:28;;;;;;;;;;;;;;;15.58;49.21;100665.19;5093121;28;1110;-41
2022/12/23 05:23:54;;;;;;;;;;;;;;;15.44;49.33;100667.63;5098186;28;1971;-43
2022/12/23 05:26:19;;;;;;;;;;;;;;;17.00;45.76;100662.00;5083995;28;1034;-42
2022/12/23 05:28:45;;;;;;;;;;;;;;;16.59;46.52;100665.63;5085736;28;1090;-43
2022/12/23 05:31:10;;;;;;;;;;;;;;;15.89;48.22;100662.56;5097973;28;1142;-45
2022/12/23 05:33:36;;;;;;;;;;;;;;;15.60;48.87;100665.78;5090869;28;1102;-42
2022/12/23 05:36:01;;;;;;;;;;;;;;;16.79;46.43;100668.59;5092721;28;1189;-45
2022/12/23 05:38:27;;;;;;;;;;;;;;;16.53;46.57;100665.91;5087657;28;1008;-46
2022/12/23 05:40:52;;;;;;;;;;;;;;;15.82;48.38;100673.81;5084447;28;1098;-44
2022/12/23 05:43:17;;;;;;;;;;;;;;;15.55;49.23;100679.44;5096352;28;2016;-46
2022/12/23 05:45:43;;;;;;;;;;;;;;;16.43;47.21;100678.50;5078702;28;1065;-47
2022/12/23 05:48:09;;;;;;;;;;;;;;;17.04;45.45;100674.06;5097495;28;998;-45
2022/12/23 05:50:34;;;;;;;;;;;;;;;16.08;47.75;100673.84;5084543;28;944;-42
2022/12/23 05:53:00;;;;;;;;;;;;;;;15.64;48.94;100675.09;5097844;28;1046;-42
2022/12/23 05:55:26;;;;;;;;;;;;;;;16.86;46.15;100680.13;5098060;28;1159;-46
2022/12/23 05:57:51;;;;;;;;;;;;;;;16.72;46.02;100679.88;5098006;28;1006;-41
2022/12/23 06:00:17;;;;;;;;;;;;;;;15.92;48.21;100664.75;5097149;28;1069;-42
2022/12/23 06:02:42;;;;;;;;;;;;;;;15.64;48.64;100668.78;5085262;28;1975;-46
2022/12/23 06:05:08;;;;;;;;;;;;;;;15.92;48.29;100667.50;5083901;28;1189;-46
2022/12/23 06:07:33;;;;;;;;;;;;;;;17.39;44.74;100664.06;5078054;28;1153;-42
2022/12/23 06:09:59;;;;;;;;;;;;;;;16.35;47.18;100673.56;5090838;28;1026;-44
2022/12/23 06:12:24;;;;;;;;;;;;;;;15.82;48.13;100678.47;5097723;28;1022;-46
2022/12/23 06:14:50;;;;;;;;;;;;;;;15.59;49.00;100685.22;5096063;28;1969;-43
2022/12/23 06:17:15;;;;;;;;;;;;;;;17.14;45.13;100675.97;5084325;28;1170;-46
2022/12/23 06:19:40;;;;;;;;;;;;;;;16.62;46.18;100672.50;5084495;28;1090;-43
2022/12/23 06:22:06;;;;;;;;;;;;;;;15.96;48.07;100684.25;5097067;28;1047;-46
2022/12/23 06:24:31;;;;;;;;;;;;;;;15.81;48.40;100687.78;5097440;28;1910;-47
2022/12/23 06:26:57;;;;;;;;;;;;;;;17.44;44.14;100674.19;5076891;28;1197;-46
2022/12/23 06:29:23;;;;;;;;;;;;;;;16.68;46.21;100687.84;5089707;28;1090;-48
2022/12/23 06:31:48;;;;;;;;;;;;;;;18.26;42.53;100683.91;5090683;28;1070;-44
2022/12/23 06:34:14;;;;;;;;;;;;;;;17.30;44.49;100690.47;5090461;28;1111;-47
2022/12/23 06:36:39;;;;;;;;;;;;;;;17.43;44.42;100689.88;5090635;28;1161;-45
2022/12/23 06:39:04;;;;;;;;;;;;;;;18.79;41.20;100689.50;5090300;28;1427;-46
2022/12/23 06:41:30;;;;;;;;;;;;;;;16.99;45.19;100690.56;5090558;28;1150;-44
2022/12/23 06:43:55;;;;;;;;;;;;;;;17.65;44.18;100690.59;5083502;28;1902;-45
2022/12/23 06:46:21;;;;;;;;;;;;;;;17.65;43.70;100690.59;5083800;28;1260;-43
2022/12/23 06:48:46;;;;;;;;;;;;;;;16.72;45.59;100693.63;5097090;28;987;-42
2022/12/23 06:51:12;;;;;;;;;;;;;;;18.28;42.86;100688.00;5076418;28;876;-46
2022/12/23 06:53:38;;;;;;;;;;;;;;;17.02;45.45;100686.44;5076101;28;1027;-47
2022/12/23 06:56:03;;;;;;;;;;;;;;;18.37;42.84;100690.97;5096070;28;1030;-47
2022/12/23 06:58:29;;;;;;;;;;;;;;;18.30;42.52;100685.00;5096536;28;1193;-47
2022/12/23 07:00:54;;;;;;;;;;;;;;;17.09;45.06;100685.03;5089868;28;1086;-43
2022/12/23 07:03:20;;;;;;;;;;;;;;;18.15;43.08;100685.09;5089593;28;1906;-41
2022/12/23 07:05:52;;;;;;;;;;;;;;;17.33;44.59;100689.09;5089694;28;1198;-44
2022/12/23 07:08:18;;;;;;;;;;;;;;;18.19;43.15;100680.66;5090154;28;1051;-44
2022/12/23 07:10:43;;;;;;;;;;;;;;;18.66;41.87;100681.91;5096199;28;1066;-47
2022/12/23 07:13:09;;;;;;;;;;;;;;;17.22;45.10;100685.53;5095232;28;1899;-44
2022/12/23 07:15:34;;;;;;;;;;;;;;;17.21;45.30;100692.16;5084101;28;1146;-48
2022/12/23 07:18:00;;;;;;;;;;;;;;;18.02;43.47;100681.03;5082743;28;1082;-46
2022/12/23 07:20:25;;;;;;;;;;;;;;;17.10;45.18;100686.69;5095846;28;1137;-44
2022/12/23 07:22:53;;;;;;;;;;;;;;;18.05;43.81;100686.81;5096804;28;1906;-45
2022/12/23 07:25:18;;;;;;;;;;;;;;;17.23;45.20;100689.94;5096071;28;1043;-45
2022/12/23 07:27:44;;;;;;;;;;;;;;;18.70;42.14;100693.19;5090389;28;1075;-46
2022/12/23 07:30:09;;;;;;;;;;;;;;;18.91;41.41;100688.31;5096275;28;1178;-40
2022/12/23 07:32:35;;;;;;;;;;;;;;;17.47;44.69;100690.13;5076534;28;1034;-45
2022/12/23 07:35:00;;;;;;;;;;;;;;;16.96;45.22;100691.13;5089429;28;1214;-44
2022/12/23 07:37:26;;;;;;;;;;;;;;;17.76;44.18;100686.69;5095847;28;1106;-46
2022/12/23 07:39:51;;;;;;;;;;;;;;;16.90;46.15;100692.22;5096144;28;1225;-41
2022/12/23 07:42:17;;;;;;;;;;;;;;;19.07;41.65;100692.56;5095569;28;1011;-46
2022/12/23 07:44:42;;;;;;;;;;;;;;;17.72;44.14;100691.91;5094689;28;1910;-42
2022/12/23 07:47:08;;;;;;;;;;;;;;;17.23;44.77;100690.75;5095404;28;1264;-45
2022/12/23 07:49:33;;;;;;;;;;;;;;;17.55;44.89;100686.78;5093904;28;1292;-46
2022/12/23 07:51:59;;;;;;;;;;;;;;;17.67;44.44;100682.88;5094922;28;1296;-44
2022/12/23 07:54:24;;;;;;;;;;;;;;;16.87;45.68;100698.25;5095983;28;1225;-46
2022/12/23 07:56:50;;;;;;;;;;;;;;;18.77;42.21;100694.47;5096071;28;1186;-46
2022/12/23 07:59:15;;;;;;;;;;;;;;;17.34;44.96;100686.06;5095572;28;1201;-44
2022/12/23 08:01:41;;;;;;;;;;;;;;;18.19;43.51;100688.91;5093896;28;1960;-46
2022/12/23 08:04:06;;;;;;;;;;;;;;;18.17;43.21;100688.38;5095714;28;1980;-46
2022/12/23 08:06:33;;;;;;;;;;;;;;;17.29;44.86;100683.31;5095688;28;1261;-47
2022/12/23 08:08:59;;;;;;;;;;;;;;;18.61;42.66;100679.22;5095466;28;1221;-42
2022/12/23 08:11:24;;;;;;;;;;;;;;;17.47;44.76;100689.31;5095552;28;1257;-46
2022/12/23 08:13:51;;;;;;;;;;;;;;;17.71;44.57;100689.47;5090988;28;1950;-44
2022/12/23 08:16:17;;;;;;;;;;;;;;;18.40;42.93;100675.81;5094547;28;1198;-46
2022/12/23 08:18:42;;;;;;;;;;;;;;;17.31;44.78;100681.13;5095813;28;1372;-44
2022/12/23 08:21:18;;;;;;;;;;;;;;;18.26;43.47;100675.66;5095541;28;1217;-43
2022/12/23 08:23:43;;;;;;;;;;;;;;;17.51;44.74;100679.41;5095268;28;1917;-42
2022/12/23 08:26:10;;;;;;;;;;;;;;;17.02;45.07;100672.72;5095210;28;1245;-41
2022/12/23 08:28:35;;;;;;;;;;;;;;;18.38;42.86;100667.81;5095371;28;1301;-44
2022/12/23 08:31:05;;;;;;;;;;;;;;;17.13;45.54;100668.81;5095530;28;1138;-43
2022/12/23 08:33:30;;;;;;;;;;;;;;;19.01;41.88;100665.34;5095217;28;1253;-44
2022/12/23 08:35:56;;;;;;;;;;;;;;;18.19;43.09;100667.72;5095464;28;1218;-43
2022/12/23 08:38:21;;;;;;;;;;;;;;;17.32;44.85;100660.78;5092870;28;1189;-43
2022/12/23 08:40:46;;;;;;;;;;;;;;;19.01;41.78;100660.63;5095413;28;1261;-47
2022/12/23 08:43:12;;;;;;;;;;;;;;;17.64;44.47;100654.00;5093982;28;2417;-42
2022/12/23 08:45:37;;;;;;;;;;;;;;;17.26;45.41;100650.91;5094462;28;1225;-45
2022/12/23 08:48:04;;;;;;;;;;;;;;;17.98;43.61;100656.06;5095207;28;1127;-41
2022/12/23 08:50:29;;;;;;;;;;;;;;;18.33;43.50;100640.38;5094752;28;1198;-41
2022/12/23 08:52:55;;;;;;;;;;;;;;;19.77;39.94;100638.72;5095465;28;1206;-45
2022/12/23 08:55:20;;;;;;;;;;;;;;;18.12;43.49;100629.53;5098564;28;1071;-46
2022/12/23 08:57:45;;;;;;;;;;;;;;;17.37;44.95;100619.53;5098382;28;1234;-45
2022/12/23 09:00:11;;;;;;;;;;;;;;;17.16;44.96;100628.97;5098546;28;1269;-41
2022/12/23 09:02:36;;;;;;;;;;;;;;;18.70;42.59;100621.56;5098471;28;1225;-43
2022/12/23 09:05:02;;;;;;;;;;;;;;;17.41;44.87;100615.09;5098203;28;1964;-44
2022/12/23 09:07:27;;;;;;;;;;;;;;;18.36;43.27;100617.75;5098457;28;1238;-47
2022/12/23 09:09:53;;;;;;;;;;;;;;;18.32;43.04;100624.94;5098274;28;1225;-45
2022/12/23 09:12:18;;;;;;;;;;;;;;;17.41;45.04;100615.09;5098768;28;1206;-42
2022/12/23 09:14:46;;;;;;;;;;;;;;;17.41;45.39;100620.59;5093856;28;1840;-44
2022/12/23 09:17:12;;;;;;;;;;;;;;;17.54;44.87;100608.16;5094003;28;1050;-43
2022/12/23 09:19:37;;;;;;;;;;;;;;;17.73;44.67;100602.00;5098945;28;1030;-48
2022/12/23 09:22:03;;;;;;;;;;;;;;;19.25;41.23;100596.41;5092445;28;1141;-44
2022/12/23 09:24:28;;;;;;;;;;;;;;;17.54;44.63;100599.09;5097044;28;1902;-44
2022/12/23 09:26:53;;;;;;;;;;;;;;;17.50;44.85;100601.59;5087905;28;1089;-46
2022/12/23 09:29:19;;;;;;;;;;;;;;;17.83;44.25;100596.44;5088274;28;1083;-46
2022/12/23 09:31:44;;;;;;;;;;;;;;;17.39;45.51;100595.34;5094800;28;1027;-45
2022/12/23 09:34:10;;;;;;;;;;;;;;;19.43;40.75;100595.63;5098068;28;1296;-43
2022/12/23 09:36:35;;;;;;;;;;;;;;;17.82;44.20;100592.03;5098701;28;1233;-45
2022/12/23 09:39:01;;;;;;;;;;;;;;;17.24;44.82;100589.94;5097667;28;1133;-41
2022/12/23 09:41:26;;;;;;;;;;;;;;;17.50;44.88;100592.53;5091950;28;1029;-44
2022/12/23 09:43:58;;;;;;;;;;;;;;;17.72;44.65;100587.41;5087063;28;1973;-45
2022/12/23 09:46:24;;;;;;;;;;;;;;;17.41;45.22;100593.13;5097733;28;1264;-49
2022/12/23 09:48:56;;;;;;;;;;;;;;;19.18;41.22;100598.72;5096923;28;1246;-45
2022/12/23 09:51:21;;;;;;;;;;;;;;;17.64;44.74;100590.78;5084669;28;1169;-44
2022/12/23 09:53:56;;;;;;;;;;;;;;;17.11;45.10;100588.63;5083431;28;1049;-42
2022/12/23 09:56:24;;;;;;;;;;;;;;;18.42;43.15;100596.50;5084617;28;1485;-41
2022/12/23 09:58:52;;;;;;;;;;;;;;;17.13;45.80;100585.59;5096629;28;1086;-43
2022/12/23 10:01:21;;;;;;;;;;;;;;;18.80;42.30;100589.22;5096130;28;1293;-44
2022/12/23 10:03:50;;;;;;;;;;;;;;;18.16;43.47;100594.00;5076420;28;1898;-46
2022/12/23 10:06:18;;;;;;;;;;;;;;;17.42;44.94;100586.53;5077541;28;1034;-44
2022/12/23 10:08:44;;;;;;;;;;;;;;;18.92;41.79;100579.75;5096701;28;1032;-44
2022/12/23 10:11:23;;;;;;;;;;;;;;;17.62;44.81;100576.50;5096320;28;1102;-42
2022/12/23 10:13:48;;;;;;;;;;;;;;;18.51;43.13;100586.50;5090814;28;1863;-46
2022/12/23 10:16:17;;;;;;;;;;;;;;;18.11;43.63;100583.03;5083820;28;1043;-41
2022/12/23 10:18:45;;;;;;;;;;;;;;;17.27;45.11;100570.13;5096035;28;1190;-41
2022/12/23 10:21:13;;;;;;;;;;;;;;;19.07;41.62;100575.97;5095636;28;1305;-43
2022/12/23 10:23:39;;;;;;;;;;;;;;;17.55;44.89;100565.81;5095399;28;1902;-47
2022/12/23 10:26:11;;;;;;;;;;;;;;;18.32;43.52;100577.34;5096645;28;1198;-41
2022/12/23 10:28:36;;;;;;;;;;;;;;;18.15;43.65;100570.34;5092923;28;1194;-43
2022/12/23 10:31:03;;;;;;;;;;;;;;;17.35;45.27;100564.03;5096802;28;1193;-43
2022/12/23 10:33:35;;;;;;;;;;;;;;;18.74;42.45;100565.59;5096789;28;1249;-43
2022/12/23 10:36:06;;;;;;;;;;;;;;;17.40;45.14;100563.16;5095192;28;1234;-44
2022/12/23 10:38:38;;;;;;;;;;;;;;;18.59;42.89;100571.28;5095642;28;1185;-47
2022/12/23 10:41:04;;;;;;;;;;;;;;;18.11;43.49;100561.81;5097310;28;1072;-46
2022/12/23 10:43:29;;;;;;;;;;;;;;;17.42;44.79;100559.03;5093500;28;1967;-48
2022/12/23 10:46:13;;;;;;;;;;;;;;;18.39;43.51;100556.59;5097023;28;1182;-46
2022/12/23 10:48:45;;;;;;;;;;;;;;;17.60;44.76;100552.03;5096631;28;1312;-49
2022/12/23 10:51:15;;;;;;;;;;;;;;;17.85;44.69;100552.97;5095673;28;1146;-49
2022/12/23 10:53:42;;;;;;;;;;;;;;;18.43;42.99;100559.63;5095275;28;1229;-49
2022/12/23 10:56:08;;;;;;;;;;;;;;;17.43;44.88;100551.59;5095946;28;1007;-50
2022/12/23 10:58:37;;;;;;;;;;;;;;;18.98;42.12;100551.84;5096778;28;1110;-47
2022/12/23 11:01:03;;;;;;;;;;;;;;;17.80;44.42;100553.00;5096242;28;1198;-47
2022/12/23 11:03:37;;;;;;;;;;;;;;;17.37;45.14;100545.31;5094923;28;1963;-47
2022/12/23 11:06:02;;;;;;;;;;;;;;;18.20;43.51;100552.94;5094883;28;1210;-49
2022/12/23 11:08:28;;;;;;;;;;;;;;;17.32;45.08;100548.13;5095246;28;1281;-48
2022/12/23 11:10:53;;;;;;;;;;;;;;;18.12;44.03;100544.22;5094541;28;1214;-49
2022/12/23 11:13:22;;;;;;;;;;;;;;;17.75;44.53;100536.53;5094299;28;1952;-45
2022/12/23 11:15:48;;;;;;;;;;;;;;;17.51;45.29;100542.75;5095627;28;1186;-48
2022/12/23 11:18:16;;;;;;;;;;;;;;;18.89;42.03;100536.25;5096222;28;1043;-46
2022/12/23 11:20:42;;;;;;;;;;;;;;;17.54;44.74;100538.63;5081585;28;1106;-42
2022/12/23 11:23:27;;;;;;;;;;;;;;;17.06;45.25;100537.25;5085019;28;1902;-47
2022/12/23 11:26:02;;;;;;;;;;;;;;;17.83;44.32;100532.34;5076581;28;986;-50
2022/12/23 11:28:28;;;;;;;;;;;;;;;17.07;45.66;100533.41;5089710;28;1070;-48
2022/12/23 11:30:57;;;;;;;;;;;;;;;18.36;43.71;100537.94;5096120;28;1089;-49
2022/12/23 11:33:24;;;;;;;;;;;;;;;17.30;45.38;100531.06;5093128;28;1019;-50
2022/12/23 11:36:00;;;;;;;;;;;;;;;17.10;46.09;100535.56;5100877;28;1019;-48
2022/12/23 11:38:25;;;;;;;;;;;;;;;17.78;44.44;100542.28;5092118;28;1246;-47
2022/12/23 11:40:51;;;;;;;;;;;;;;;17.05;45.73;100535.59;5090572;28;867;-47
2022/12/23 11:43:16;;;;;;;;;;;;;;;18.37;43.49;100531.31;5093768;28;1999;-47
2022/12/23 11:45:42;;;;;;;;;;;;;;;17.46;45.20;100529.06;5096389;28;1081;-49
2022/12/23 11:48:26;;;;;;;;;;;;;;;17.02;45.39;100529.88;5095557;28;1018;-49
2022/12/23 11:50:56;;;;;;;;;;;;;;;17.85;44.48;100530.97;5082625;28;1176;-47
2022/12/23 11:53:22;;;;;;;;;;;;;;;17.00;45.92;100526.56;5082950;28;920;-46
2022/12/23 11:55:58;;;;;;;;;;;;;;;19.12;41.97;100527.09;5095306;28;1077;-45
2022/12/23 11:58:24;;;;;;;;;;;;;;;17.72;44.45;100537.91;5084612;28;1158;-48
2022/12/23 12:00:51;;;;;;;;;;;;;;;17.24;45.08;100537.72;5091102;28;1162;-46
2022/12/23 12:03:17;;;;;;;;;;;;;;;18.42;43.30;100533.19;5090283;28;1991;-49
2022/12/23 12:05:50;;;;;;;;;;;;;;;17.30;45.46;100542.06;5087512;28;1079;-47
2022/12/23 12:08:18;;;;;;;;;;;;;;;18.55;43.10;100543.50;5094738;28;1026;-46
2022/12/23 12:10:44;;;;;;;;;;;;;;;18.18;43.67;100535.91;5095153;28;1106;-48
2022/12/23 12:13:22;;;;;;;;;;;;;;;17.20;45.55;100537.44;5093691;28;2034;-51
2022/12/23 12:15:51;;;;;;;;;;;;;;;17.61;45.30;100537.19;5083561;28;1213;-48
2022/12/23 12:18:16;;;;;;;;;;;;;;;17.48;45.36;100532.34;5090561;28;1050;-50
2022/12/23 12:20:43;;;;;;;;;;;;;;;17.75;45.06;100533.78;5094254;28;1127;-47
2022/12/23 12:23:17;;;;;;;;;;;;;;;18.92;42.14;100528.22;5096083;28;1914;-49
2022/12/23 12:25:47;;;;;;;;;;;;;;;17.50;45.13;100534.78;5094537;28;1226;-46
2022/12/23 12:28:13;;;;;;;;;;;;;;;18.76;42.79;100538.59;5094721;28;1206;-50
2022/12/23 12:30:44;;;;;;;;;;;;;;;17.95;44.52;100538.34;5099546;28;1095;-47
2022/12/23 12:33:13;;;;;;;;;;;;;;;17.28;45.38;100541.53;5097499;28;1234;-49
2022/12/23 12:35:39;;;;;;;;;;;;;;;18.35;43.63;100540.97;5099044;28;1201;-50
2022/12/23 12:38:23;;;;;;;;;;;;;;;17.28;45.34;100542.34;5098722;28;1277;-44
2022/12/23 12:40:53;;;;;;;;;;;;;;;19.39;41.61;100550.47;5096157;28;1257;-48
2022/12/23 12:43:26;;;;;;;;;;;;;;;18.26;43.49;100560.06;5095847;28;1979;-45
2022/12/23 12:45:57;;;;;;;;;;;;;;;17.51;45.07;100558.44;5090908;28;1086;-43
2022/12/23 12:48:42;;;;;;;;;;;;;;;18.51;43.29;100555.38;5098444;28;1067;-45
2022/12/23 12:51:25;;;;;;;;;;;;;;;17.39;45.38;100548.63;5099522;28;1003;-48
2022/12/23 12:53:56;;;;;;;;;;;;;;;17.89;44.94;100548.53;5092849;28;971;-45
2022/12/23 12:56:24;;;;;;;;;;;;;;;17.43;45.41;100554.34;5107617;28;1074;-48
2022/12/23 12:58:49;;;;;;;;;;;;;;;18.24;44.28;100565.88;5097251;28;1038;-44
2022/12/23 13:01:21;;;;;;;;;;;;;;;19.10;41.93;100556.09;5095264;28;1236;-47
2022/12/23 13:04:05;;;;;;;;;;;;;;;17.79;44.42;100563.19;5089347;28;1953;-47
2022/12/23 13:06:33;;;;;;;;;;;;;;;17.34;45.60;100570.63;5079557;28;1060;-48
2022/12/23 13:09:06;;;;;;;;;;;;;;;17.99;44.36;100569.63;5097748;28;1245;-45
2022/12/23 13:11:44;;;;;;;;;;;;;;;17.27;45.36;100570.13;5096966;28;1371;-48
2022/12/23 13:14:22;;;;;;;;;;;;;;;19.07;42.08;100568.53;5097938;28;1855;-44
2022/12/23 13:16:47;;;;;;;;;;;;;;;17.54;45.29;100560.59;5097866;28;1323;-47